Airfield :
LOGIN :

Register | Disclaimer

   EN    FR    IT 

 










Legend :    VFR   Marginal VFR   IFR   Intensive IFR   Very Intensive IFR
Visi :
Ceiling :
>= 8 km
>= 3000ft
5 to 8 km
1000 to 3000 ft
1500m to 5 km
500 to 1000 ft
800 to 1500m
200 to 500 ft
< 800m
< 200 ft
Symbols :   Thunderstorms  Fog  Heavy snow  Heavy precipitations  Wind > 20 kt
SIGMETs :     Misc.  Thunderstorms  Icing  Turbulence  Mountain Waves  Volcanic Ashes






- Airport Elevation : 279 ft
- IATA code : TGR


DAUK - Touggourt Sidi Mahdi

CURRENT METAR :
  • 201400Z 26011KT 1500 SA NSC 34/08 Q1006

EXPIRED METARs :
  • 201300Z 26010KT 1500 SA NSC 33/09 Q1006
  • 201200Z 26012KT 1500 SA NSC 32/10 Q1006
  • 201100Z 26012KT 1000 SA NSC 31/11 Q1006
  • 201000Z 27011KT 1000 SA NSC 30/13 Q1006

TAF TAF DAUK
Valid from the 20 at 15:00 until the 21 at 00:00 UTC


201400Z 2015/2024 26012KT 1500 SA NSC
PROB30
TEMPO 2015/2017 28015G30KT DRSA FEW033CB
BECMG 2017/2019 6000 NSW



MET'MAP, your aeronautical weather chart ! - Copyright ORBIFLY December 2007 - Disclaimer

ORBIFLY MET'MAP TEAM :

Programming & Development : Alexandra Zaïnal
Original concept : Baudouin d'Aumeries
Technical & hardware support : Manuel Goepfert
Assistance : Marc-Olivier Méhu




SOURCES & CREDITS :

   NOAA